createdAt,value
2023-03-24T00:01:07.697Z,14.50
2023-03-24T00:03:36.520Z,14.50
2023-03-24T00:06:05.970Z,14.50
2023-03-24T00:08:37.649Z,14.50
2023-03-24T00:11:11.696Z,14.50
2023-03-24T00:13:39.835Z,14.50
2023-03-24T00:16:09.352Z,14.40
2023-03-24T00:18:37.136Z,14.40
2023-03-24T00:21:05.974Z,14.50
2023-03-24T00:23:34.793Z,14.50
2023-03-24T00:26:09.737Z,14.50
2023-03-24T00:28:37.282Z,14.50
2023-03-24T00:31:06.305Z,14.40
2023-03-24T00:33:35.008Z,14.40
2023-03-24T00:36:07.596Z,14.40
2023-03-24T00:38:35.055Z,14.50
2023-03-24T00:41:02.527Z,14.40
2023-03-24T00:43:30.078Z,14.50
2023-03-24T00:46:01.998Z,14.50
2023-03-24T00:48:29.852Z,14.50
2023-03-24T00:50:57.177Z,14.50
2023-03-24T00:53:25.911Z,14.50
2023-03-24T00:55:53.879Z,14.50
2023-03-24T00:58:22.165Z,14.40
2023-03-24T01:00:52.391Z,14.40
2023-03-24T01:03:30.096Z,14.40
2023-03-24T01:06:03.222Z,14.30
2023-03-24T01:08:31.864Z,14.30
2023-03-24T01:11:01.322Z,14.30
2023-03-24T01:13:29.671Z,14.30
2023-03-24T01:15:57.609Z,14.30
2023-03-24T01:18:24.912Z,14.20
2023-03-24T01:20:52.597Z,14.20
2023-03-24T01:23:23.172Z,14.10
2023-03-24T01:25:51.182Z,14.10
2023-03-24T01:28:25.248Z,14.00
2023-03-24T01:30:53.490Z,14.10
2023-03-24T01:33:21.446Z,14.00
2023-03-24T01:35:49.152Z,14.00
2023-03-24T01:38:19.640Z,14.10
2023-03-24T01:40:47.549Z,14.10
2023-03-24T01:43:22.173Z,14.00
2023-03-24T01:46:02.164Z,14.10
2023-03-24T01:48:50.360Z,14.20
2023-03-24T01:51:42.408Z,14.20
2023-03-24T01:54:33.324Z,14.20
2023-03-24T01:57:24.415Z,14.10
2023-03-24T01:59:54.717Z,14.20
2023-03-24T02:02:49.602Z,14.10
2023-03-24T02:05:29.424Z,14.00
2023-03-24T02:08:20.593Z,14.10
2023-03-24T02:10:48.001Z,14.00
2023-03-24T02:13:15.455Z,14.00
2023-03-24T02:16:16.377Z,14.00
2023-03-24T02:19:25.117Z,14.10
2023-03-24T02:22:32.333Z,14.00
2023-03-24T02:25:51.449Z,14.00
2023-03-24T02:28:48.657Z,14.00
2023-03-24T02:31:38.039Z,14.00
2023-03-24T02:34:41.103Z,13.90
2023-03-24T02:37:39.309Z,14.00
2023-03-24T02:40:34.179Z,13.90
2023-03-24T02:43:58.333Z,13.80
2023-03-24T02:46:38.956Z,13.90
2023-03-24T02:49:43.705Z,13.80
2023-03-24T02:52:20.640Z,13.90
2023-03-24T02:54:59.628Z,13.80
2023-03-24T02:57:48.943Z,13.80
2023-03-24T03:00:46.027Z,13.80
2023-03-24T03:03:46.929Z,13.80
2023-03-24T03:06:32.873Z,13.80
2023-03-24T03:09:05.113Z,13.80
2023-03-24T03:11:32.401Z,13.80
2023-03-24T03:14:11.086Z,13.80
2023-03-24T03:16:48.601Z,13.90
2023-03-24T03:19:33.294Z,13.90
2023-03-24T03:22:04.049Z,13.90
2023-03-24T03:24:35.509Z,13.90
2023-03-24T03:27:10.704Z,14.00
2023-03-24T03:29:40.039Z,14.00
2023-03-24T03:32:09.907Z,14.00
2023-03-24T03:34:57.617Z,14.00
2023-03-24T03:37:54.276Z,14.00
2023-03-24T03:40:51.002Z,14.00
2023-03-24T03:43:21.669Z,13.90
2023-03-24T03:45:49.169Z,13.90
2023-03-24T03:48:20.028Z,13.90
2023-03-24T03:50:47.278Z,13.90
2023-03-24T03:53:15.519Z,13.90
2023-03-24T03:55:43.271Z,13.90
2023-03-24T03:58:10.802Z,13.90
2023-03-24T04:00:42.054Z,14.00
2023-03-24T04:04:33.259Z,14.00
2023-03-24T04:07:28.675Z,14.00
2023-03-24T04:10:24.355Z,13.90
2023-03-24T04:13:07.577Z,13.90
2023-03-24T04:16:24.112Z,14.00
2023-03-24T04:19:46.059Z,13.80
2023-03-24T04:22:45.656Z,13.90
2023-03-24T04:25:58.531Z,13.90
2023-03-24T04:28:42.261Z,13.90
2023-03-24T04:31:37.402Z,13.80
2023-03-24T04:34:12.226Z,13.80
2023-03-24T04:36:45.388Z,13.90
2023-03-24T04:39:31.173Z,13.80
2023-03-24T04:42:11.919Z,13.80
2023-03-24T04:44:41.740Z,13.90
2023-03-24T04:47:32.024Z,13.80
2023-03-24T04:50:36.405Z,13.80
2023-03-24T04:53:08.642Z,13.90
2023-03-24T04:56:17.028Z,13.80
2023-03-24T04:59:02.663Z,13.90
2023-03-24T05:01:30.442Z,13.80
2023-03-24T05:04:28.375Z,13.80
2023-03-24T05:06:57.946Z,13.80
2023-03-24T05:09:27.155Z,13.80
2023-03-24T05:11:54.440Z,13.80
2023-03-24T05:14:23.337Z,13.90
2023-03-24T05:16:51.154Z,13.90
2023-03-24T05:19:20.310Z,13.90
2023-03-24T05:21:47.955Z,13.90
2023-03-24T05:24:15.566Z,14.00
2023-03-24T05:26:43.296Z,13.90
2023-03-24T05:29:15.870Z,13.80
2023-03-24T05:31:45.271Z,13.80
2023-03-24T05:34:22.795Z,13.90
2023-03-24T05:37:12.972Z,13.80
2023-03-24T05:39:41.148Z,13.80
2023-03-24T05:42:25.937Z,13.80
2023-03-24T05:44:53.160Z,13.70
2023-03-24T05:47:27.347Z,13.70
2023-03-24T05:49:55.645Z,13.70
2023-03-24T05:52:23.050Z,13.70
2023-03-24T05:54:52.943Z,13.80
2023-03-24T05:57:23.929Z,13.70
2023-03-24T06:00:17.967Z,13.70
2023-03-24T06:03:17.353Z,13.70
2023-03-24T06:05:51.095Z,13.70
2023-03-24T06:08:18.833Z,13.70
2023-03-24T06:10:46.167Z,13.70
2023-03-24T06:13:13.689Z,13.70
2023-03-24T06:15:46.882Z,13.70
2023-03-24T06:18:33.616Z,13.70
2023-03-24T06:21:07.634Z,13.60
2023-03-24T06:23:36.140Z,13.70
2023-03-24T06:26:11.805Z,13.60
2023-03-24T06:28:59.043Z,13.60
2023-03-24T06:31:32.838Z,13.50
2023-03-24T06:34:03.213Z,13.50
2023-03-24T06:36:30.714Z,13.50
2023-03-24T06:38:58.080Z,13.40
2023-03-24T06:41:27.377Z,13.40
2023-03-24T06:43:58.805Z,13.40
2023-03-24T06:49:37.292Z,13.40
2023-03-24T06:52:05.172Z,13.40
2023-03-24T06:54:36.264Z,13.40
2023-03-24T06:57:10.644Z,13.50
2023-03-24T07:00:13.937Z,13.40
2023-03-24T07:02:56.344Z,13.50
2023-03-24T07:05:27.912Z,13.40
2023-03-24T07:08:29.748Z,13.40
2023-03-24T07:10:50.594Z,13.50
2023-03-24T07:13:20.350Z,13.60
2023-03-24T07:15:48.616Z,13.70
2023-03-24T07:18:16.675Z,13.80
2023-03-24T07:20:48.501Z,13.90
2023-03-24T07:23:27.975Z,14.00
2023-03-24T07:26:07.435Z,14.00
2023-03-24T07:28:53.438Z,14.10
2023-03-24T07:31:48.872Z,14.20
2023-03-24T07:34:16.734Z,14.20
2023-03-24T07:36:44.420Z,14.30
2023-03-24T07:39:16.634Z,14.30
2023-03-24T07:41:44.054Z,14.40
2023-03-24T07:44:28.864Z,14.40
2023-03-24T07:46:56.621Z,14.30
2023-03-24T07:49:23.858Z,14.30
2023-03-24T07:52:02.151Z,14.30
2023-03-24T07:54:36.633Z,14.40
2023-03-24T07:57:06.489Z,14.40
2023-03-24T07:59:44.091Z,14.40
2023-03-24T08:02:21.178Z,14.50
2023-03-24T08:04:58.046Z,14.50
2023-03-24T08:07:53.462Z,14.60
2023-03-24T08:10:47.362Z,14.60
2023-03-24T08:13:14.838Z,14.60
2023-03-24T08:15:42.110Z,14.70
2023-03-24T08:18:10.415Z,14.70
2023-03-24T08:20:38.692Z,14.70
2023-03-24T08:23:26.283Z,14.70
2023-03-24T08:25:56.524Z,14.80
2023-03-24T08:28:26.393Z,14.80
2023-03-24T08:30:59.571Z,14.90
2023-03-24T08:33:33.237Z,15.00
2023-03-24T08:38:55.706Z,15.20
2023-03-24T08:41:30.750Z,15.30
2023-03-24T08:43:58.041Z,15.40
2023-03-24T08:46:25.245Z,15.60
2023-03-24T08:48:52.899Z,15.70
2023-03-24T08:51:20.519Z,15.80
2023-03-24T08:53:47.806Z,15.90
2023-03-24T08:56:16.566Z,16.00
2023-03-24T08:58:59.760Z,16.10
2023-03-24T09:01:30.011Z,16.20
2023-03-24T09:03:57.660Z,16.30
2023-03-24T09:06:24.836Z,16.40
2023-03-24T09:08:54.038Z,16.40
2023-03-24T09:11:21.914Z,16.50
2023-03-24T09:13:49.377Z,16.50
2023-03-24T09:16:19.303Z,16.50
2023-03-24T09:18:47.546Z,16.50
2023-03-24T09:21:14.871Z,16.60
2023-03-24T09:23:42.194Z,16.60
2023-03-24T09:26:12.618Z,16.70
2023-03-24T09:28:43.047Z,16.70
2023-03-24T09:31:13.134Z,16.80
2023-03-24T09:33:45.930Z,16.80
2023-03-24T09:36:32.922Z,16.90
2023-03-24T09:39:07.586Z,17.00
2023-03-24T09:41:37.501Z,17.10
2023-03-24T09:44:16.595Z,17.20
2023-03-24T09:47:15.072Z,17.20
2023-03-24T09:49:45.493Z,17.20
2023-03-24T09:52:19.734Z,17.30
2023-03-24T09:54:56.331Z,17.30
2023-03-24T09:57:38.444Z,17.50
2023-03-24T10:00:54.648Z,17.50
2023-03-24T10:03:24.650Z,17.70
2023-03-24T10:09:37.919Z,17.80
2023-03-24T10:12:22.455Z,17.80
2023-03-24T10:15:01.193Z,18.00
2023-03-24T10:17:57.885Z,18.00
2023-03-24T10:20:36.114Z,18.10
2023-03-24T10:23:47.877Z,18.20
2023-03-24T10:26:48.594Z,18.30
2023-03-24T10:29:23.328Z,18.50
2023-03-24T10:32:22.649Z,18.60
2023-03-24T10:34:58.585Z,18.80
2023-03-24T10:37:27.468Z,18.80
2023-03-24T10:39:54.832Z,18.80
2023-03-24T10:42:26.487Z,18.80
2023-03-24T10:44:53.840Z,18.90
2023-03-24T10:47:30.710Z,18.90
2023-03-24T10:50:12.263Z,18.90
2023-03-24T10:52:47.339Z,18.90
2023-03-24T10:55:17.534Z,19.00
2023-03-24T10:57:46.594Z,19.00
2023-03-24T11:00:26.618Z,19.10
2023-03-24T11:03:18.088Z,19.20
2023-03-24T11:05:46.183Z,19.20
2023-03-24T11:08:22.299Z,19.20
2023-03-24T11:10:49.744Z,19.20
2023-03-24T11:13:25.145Z,19.20
2023-03-24T11:16:16.153Z,19.30
2023-03-24T11:19:01.965Z,19.30
2023-03-24T11:21:31.492Z,19.30
2023-03-24T11:24:15.808Z,19.30
2023-03-24T11:26:56.099Z,19.30
2023-03-24T11:29:25.773Z,19.30
2023-03-24T11:32:03.590Z,19.30
2023-03-24T11:34:38.938Z,19.40
2023-03-24T11:37:42.280Z,19.40
2023-03-24T11:40:24.583Z,19.50
2023-03-24T11:43:02.629Z,19.50
2023-03-24T11:45:44.857Z,19.50
2023-03-24T11:48:30.028Z,19.50
2023-03-24T11:50:58.953Z,19.50
2023-03-24T11:53:36.181Z,19.50
2023-03-24T11:56:46.533Z,19.50
2023-03-24T11:59:40.840Z,19.60
2023-03-24T12:02:30.294Z,19.60
2023-03-24T12:05:27.809Z,19.50
2023-03-24T12:08:25.213Z,19.50
2023-03-24T12:11:14.128Z,19.50
2023-03-24T12:13:52.242Z,19.50
2023-03-24T12:17:05.082Z,19.50
2023-03-24T12:20:14.654Z,19.50
2023-03-24T12:23:00.299Z,19.50
2023-03-24T12:25:30.682Z,19.50
2023-03-24T12:28:27.309Z,19.50
2023-03-24T12:31:47.092Z,19.50
2023-03-24T12:35:04.598Z,19.50
2023-03-24T12:38:33.522Z,19.50
2023-03-24T12:41:28.322Z,19.50
2023-03-24T12:44:23.767Z,19.40
2023-03-24T12:47:20.299Z,19.40
2023-03-24T12:50:21.684Z,19.40
2023-03-24T12:53:16.501Z,19.50
2023-03-24T12:56:28.227Z,19.50
2023-03-24T12:59:01.428Z,19.50
2023-03-24T13:01:46.952Z,19.40
2023-03-24T13:04:31.257Z,19.40
2023-03-24T13:07:03.249Z,19.40
2023-03-24T13:09:56.185Z,19.30
2023-03-24T13:12:36.919Z,19.30
2023-03-24T13:15:13.502Z,19.40
2023-03-24T13:18:08.927Z,19.40
2023-03-24T13:20:50.287Z,19.40
2023-03-24T13:23:32.720Z,19.50
2023-03-24T13:26:26.408Z,19.50
2023-03-24T13:29:18.678Z,19.40
2023-03-24T13:32:10.512Z,19.50
2023-03-24T13:35:01.364Z,19.50
2023-03-24T13:37:49.601Z,19.50
2023-03-24T13:40:27.941Z,19.50
2023-03-24T13:43:07.234Z,19.50
2023-03-24T13:45:38.811Z,19.50
2023-03-24T13:48:10.553Z,19.50
2023-03-24T13:50:58.739Z,19.50
2023-03-24T13:53:37.937Z,19.50
2023-03-24T13:56:06.520Z,19.50
2023-03-24T13:59:29.370Z,19.30
2023-03-24T14:02:49.875Z,19.40
2023-03-24T14:05:26.190Z,19.20
2023-03-24T14:07:59.420Z,19.10
2023-03-24T14:10:26.564Z,19.00
2023-03-24T14:12:59.686Z,19.00
2023-03-24T14:15:31.974Z,18.90
2023-03-24T14:18:23.775Z,18.90
2023-03-24T14:20:57.554Z,18.90
2023-03-24T14:23:42.334Z,18.90
2023-03-24T14:26:14.596Z,18.90
2023-03-24T14:28:42.675Z,18.80
2023-03-24T14:31:16.786Z,18.80
2023-03-24T14:34:20.400Z,18.90
2023-03-24T14:36:50.324Z,18.90
2023-03-24T14:39:40.244Z,18.90
2023-03-24T14:42:35.914Z,18.90
2023-03-24T14:45:32.759Z,18.90
2023-03-24T14:48:01.299Z,18.80
2023-03-24T14:50:28.711Z,18.80
2023-03-24T14:52:59.924Z,18.80
2023-03-24T14:55:32.277Z,18.80
2023-03-24T14:58:23.073Z,18.70
2023-03-24T15:01:07.204Z,18.70
2023-03-24T15:03:49.799Z,18.70
2023-03-24T15:06:24.673Z,18.60
2023-03-24T15:08:58.431Z,18.50
2023-03-24T15:11:52.431Z,18.50
2023-03-24T15:14:26.295Z,18.50
2023-03-24T15:17:27.067Z,18.40
2023-03-24T15:19:54.914Z,18.40
2023-03-24T15:22:22.378Z,18.30
2023-03-24T15:24:54.178Z,18.20
2023-03-24T15:27:27.667Z,18.20
2023-03-24T15:29:59.272Z,18.20
2023-03-24T15:32:33.796Z,18.20
2023-03-24T15:35:08.567Z,18.10
2023-03-24T15:37:48.442Z,18.10
2023-03-24T15:40:32.600Z,18.00
2023-03-24T15:43:09.571Z,18.00
2023-03-24T15:45:57.867Z,18.00
2023-03-24T15:48:38.783Z,17.90
2023-03-24T15:51:21.258Z,17.80
2023-03-24T15:54:02.674Z,17.80
2023-03-24T15:56:45.779Z,17.80
2023-03-24T15:59:25.025Z,17.80
2023-03-24T16:01:52.380Z,17.80
2023-03-24T16:04:38.270Z,17.70
2023-03-24T16:08:28.139Z,17.70
2023-03-24T16:11:54.530Z,17.70
2023-03-24T16:14:29.473Z,17.60
2023-03-24T16:17:12.439Z,17.50
2023-03-24T16:24:35.813Z,17.50
2023-03-24T16:27:07.612Z,17.30
2023-03-24T16:29:38.461Z,17.30
2023-03-24T16:32:48.528Z,17.20
2023-03-24T16:35:18.490Z,17.20
2023-03-24T16:37:49.492Z,17.00
2023-03-24T16:40:39.486Z,17.00
2023-03-24T16:43:07.974Z,16.90
2023-03-24T16:45:37.846Z,16.80
2023-03-24T16:48:06.450Z,16.70
2023-03-24T16:50:38.728Z,16.70
2023-03-24T16:53:16.208Z,16.60
2023-03-24T16:56:07.662Z,16.60
2023-03-24T17:00:17.926Z,16.50
2023-03-24T17:02:51.980Z,16.50
2023-03-24T17:05:40.436Z,16.30
2023-03-24T17:08:07.903Z,16.30
2023-03-24T17:11:12.319Z,16.20
2023-03-24T17:13:49.943Z,16.30
2023-03-24T17:20:11.041Z,16.20
2023-03-24T17:22:38.376Z,16.10
2023-03-24T17:25:06.197Z,16.10
2023-03-24T17:27:33.464Z,16.10
2023-03-24T17:30:00.790Z,16.00
2023-03-24T17:32:32.303Z,16.00
2023-03-24T17:35:01.463Z,16.00
2023-03-24T17:37:31.545Z,15.90
2023-03-24T17:39:58.904Z,15.90
2023-03-24T17:42:26.489Z,15.80
2023-03-24T17:44:53.705Z,15.80
2023-03-24T17:47:21.081Z,15.80
2023-03-24T17:49:48.720Z,15.80
2023-03-24T17:52:16.172Z,15.80
2023-03-24T17:54:45.742Z,15.80
2023-03-24T17:57:16.195Z,15.80
2023-03-24T17:59:43.870Z,15.80
2023-03-24T18:02:12.629Z,15.80
2023-03-24T18:04:45.875Z,15.80
2023-03-24T18:07:13.492Z,15.70
2023-03-24T18:09:40.732Z,15.70
2023-03-24T18:12:08.155Z,15.70
2023-03-24T18:14:35.790Z,15.70
2023-03-24T18:17:03.351Z,15.60
2023-03-24T18:19:33.017Z,15.60
2023-03-24T18:22:02.960Z,15.50
2023-03-24T18:24:31.035Z,15.50
2023-03-24T18:26:58.494Z,15.40
2023-03-24T18:29:28.069Z,15.50
2023-03-24T18:31:55.722Z,15.40
2023-03-24T18:34:24.008Z,15.40
2023-03-24T18:36:51.634Z,15.40
2023-03-24T18:39:19.037Z,15.30
2023-03-24T18:41:48.186Z,15.30
2023-03-24T18:44:16.136Z,15.30
2023-03-24T18:46:43.720Z,15.30
2023-03-24T18:49:14.725Z,15.30
2023-03-24T18:51:43.575Z,15.30
2023-03-24T18:54:12.504Z,15.30
2023-03-24T18:56:39.935Z,15.20
2023-03-24T18:59:07.253Z,15.30
2023-03-24T19:01:35.801Z,15.20
2023-03-24T19:04:04.217Z,15.20
2023-03-24T19:06:31.732Z,15.30
2023-03-24T19:08:59.516Z,15.20
2023-03-24T19:11:26.912Z,15.30
2023-03-24T19:13:56.732Z,15.30
2023-03-24T19:16:24.091Z,15.20
2023-03-24T19:18:52.875Z,15.20
2023-03-24T19:21:24.502Z,15.20
2023-03-24T19:23:53.082Z,15.20
2023-03-24T19:26:20.631Z,15.20
2023-03-24T19:28:47.906Z,15.20
2023-03-24T19:31:17.734Z,15.20
2023-03-24T19:33:48.617Z,15.10
2023-03-24T19:36:16.131Z,15.10
2023-03-24T19:38:44.160Z,15.10
2023-03-24T19:41:13.178Z,15.20
2023-03-24T19:43:43.129Z,15.10
2023-03-24T19:46:31.637Z,15.10
2023-03-24T19:48:59.062Z,15.10
2023-03-24T19:51:27.919Z,14.90
2023-03-24T19:53:58.766Z,14.90
2023-03-24T19:56:29.615Z,14.90
2023-03-24T19:58:56.838Z,14.90
2023-03-24T20:01:24.293Z,14.80
2023-03-24T20:03:52.054Z,14.80
2023-03-24T20:06:19.895Z,14.80
2023-03-24T20:08:47.350Z,14.80
2023-03-24T20:11:14.625Z,14.80
2023-03-24T20:13:41.990Z,14.80
2023-03-24T20:16:09.411Z,14.70
2023-03-24T20:18:39.042Z,14.70
2023-03-24T20:21:09.305Z,14.60
2023-03-24T20:23:39.139Z,14.60
2023-03-24T20:26:06.463Z,14.60
2023-03-24T20:28:38.077Z,14.50
2023-03-24T20:31:06.448Z,14.50
2023-03-24T20:33:33.839Z,14.50
2023-03-24T20:36:01.406Z,14.50
2023-03-24T20:38:34.437Z,14.50
2023-03-24T20:41:03.937Z,14.50
2023-03-24T20:43:35.676Z,14.40
2023-03-24T20:46:08.732Z,14.40
2023-03-24T20:48:37.504Z,14.40
2023-03-24T20:51:05.813Z,14.30
2023-03-24T20:53:36.139Z,14.30
2023-03-24T20:56:15.269Z,14.30
2023-03-24T20:58:45.498Z,14.30
2023-03-24T21:01:23.803Z,14.20
2023-03-24T21:04:02.192Z,14.20
2023-03-24T21:06:38.454Z,14.20
2023-03-24T21:09:05.762Z,14.10
2023-03-24T21:11:33.107Z,14.10
2023-03-24T21:14:01.138Z,14.10
2023-03-24T21:16:28.832Z,14.10
2023-03-24T21:18:58.994Z,14.10
2023-03-24T21:21:26.471Z,14.10
2023-03-24T21:23:54.067Z,14.10
2023-03-24T21:26:21.474Z,14.00
2023-03-24T21:28:48.818Z,14.00
2023-03-24T21:31:25.384Z,14.00
2023-03-24T21:33:52.804Z,14.10
2023-03-24T21:36:20.838Z,14.00
2023-03-24T21:38:51.700Z,14.00
2023-03-24T21:41:19.551Z,14.00
2023-03-24T21:43:46.987Z,14.00
2023-03-24T21:46:34.666Z,14.00
2023-03-24T21:49:02.004Z,14.00
2023-03-24T21:51:37.030Z,14.00
2023-03-24T21:54:06.531Z,14.00
2023-03-24T21:56:35.128Z,14.00
2023-03-24T21:59:02.566Z,14.00
2023-03-24T22:01:31.094Z,14.00
2023-03-24T22:03:59.127Z,14.00
2023-03-24T22:06:29.019Z,13.90
2023-03-24T22:09:06.446Z,13.90
2023-03-24T22:11:35.161Z,13.90
2023-03-24T22:14:03.621Z,13.90
2023-03-24T22:16:31.053Z,13.80
2023-03-24T22:18:58.681Z,13.80
2023-03-24T22:21:26.068Z,13.80
2023-03-24T22:23:58.838Z,13.80
2023-03-24T22:26:26.022Z,13.80
2023-03-24T22:28:55.993Z,13.80
2023-03-24T22:31:24.259Z,13.80
2023-03-24T22:33:51.699Z,13.80
2023-03-24T22:36:18.929Z,13.80
2023-03-24T22:38:46.223Z,13.80
2023-03-24T22:41:13.508Z,13.80
2023-03-24T22:43:41.664Z,13.80
2023-03-24T22:46:10.678Z,13.80
2023-03-24T22:48:41.143Z,13.80
2023-03-24T22:51:09.277Z,13.80
2023-03-24T22:53:36.747Z,13.80
2023-03-24T22:56:06.187Z,13.80
2023-03-24T22:58:35.697Z,13.80
2023-03-24T23:01:03.850Z,13.80
2023-03-24T23:03:31.332Z,13.80
2023-03-24T23:06:02.056Z,13.80
2023-03-24T23:08:33.094Z,13.80
2023-03-24T23:11:00.488Z,13.80
2023-03-24T23:13:28.447Z,13.70
2023-03-24T23:15:55.714Z,13.80
2023-03-24T23:18:23.015Z,13.70
2023-03-24T23:20:50.176Z,13.70
2023-03-24T23:23:17.697Z,13.70
2023-03-24T23:25:45.535Z,13.80
2023-03-24T23:28:13.267Z,13.70
2023-03-24T23:30:41.379Z,13.70
2023-03-24T23:33:09.095Z,13.80
2023-03-24T23:35:37.505Z,13.70
2023-03-24T23:38:06.710Z,13.70
2023-03-24T23:40:33.946Z,13.70
2023-03-24T23:43:01.752Z,13.70
2023-03-24T23:45:29.010Z,13.70
2023-03-24T23:47:56.615Z,13.70
2023-03-24T23:50:23.781Z,13.70
2023-03-24T23:52:51.078Z,13.70
2023-03-24T23:55:18.594Z,13.70
2023-03-24T23:57:46.459Z,13.70
